createdAt,value
2019-03-01T00:03:26.245Z,10.16
2019-03-01T00:08:58.298Z,10.11
2019-03-01T00:14:17.748Z,10.13
2019-03-01T00:19:38.369Z,10.05
2019-03-01T00:25:02.918Z,10.00
2019-03-01T00:30:41.262Z,10.01
2019-03-01T00:36:17.748Z,10.04
2019-03-01T00:41:56.342Z,9.98
2019-03-01T00:46:58.140Z,9.93
2019-03-01T00:51:59.788Z,9.92
2019-03-01T00:57:01.461Z,9.86
2019-03-01T01:02:03.343Z,9.85
2019-03-01T01:07:04.909Z,9.84
2019-03-01T01:12:06.496Z,9.90
2019-03-01T01:17:08.048Z,9.90
2019-03-01T01:22:09.624Z,9.90
2019-03-01T01:27:11.181Z,9.90
2019-03-01T01:32:12.741Z,9.89
2019-03-01T01:37:14.296Z,9.89
2019-03-01T01:42:15.962Z,9.89
2019-03-01T01:47:17.681Z,9.89
2019-03-01T01:52:19.461Z,9.87
2019-03-01T01:57:21.010Z,9.83
2019-03-01T02:02:22.667Z,9.83
2019-03-01T02:07:24.318Z,9.81
2019-03-01T02:12:25.896Z,9.77
2019-03-01T02:17:27.464Z,9.73
2019-03-01T02:22:29.034Z,9.76
2019-03-01T02:27:30.707Z,9.73
2019-03-01T02:32:40.617Z,9.65
2019-03-01T02:37:42.181Z,9.64
2019-03-01T02:42:43.733Z,9.62
2019-03-01T02:47:45.495Z,9.63
2019-03-01T02:52:47.145Z,9.63
2019-03-01T02:57:48.711Z,9.62
2019-03-01T03:02:50.371Z,9.63
2019-03-01T03:07:53.878Z,9.61
2019-03-01T03:13:00.756Z,9.60
2019-03-01T03:18:02.296Z,9.61
2019-03-01T03:23:03.870Z,9.63
2019-03-01T03:28:05.521Z,9.64
2019-03-01T03:33:07.111Z,9.61
2019-03-01T03:38:08.673Z,9.62
2019-03-01T03:43:10.232Z,9.64
2019-03-01T03:48:11.804Z,9.60
2019-03-01T03:53:13.483Z,9.59
2019-03-01T03:58:15.147Z,9.56
2019-03-01T04:03:16.720Z,9.54
2019-03-01T04:08:18.376Z,9.50
2019-03-01T04:13:19.935Z,9.47
2019-03-01T04:18:21.497Z,9.42
2019-03-01T04:23:23.067Z,9.39
2019-03-01T04:28:24.697Z,9.42
2019-03-01T04:33:26.208Z,9.38
2019-03-01T04:38:27.762Z,9.40
2019-03-01T04:43:29.339Z,9.43
2019-03-01T04:48:30.885Z,9.45
2019-03-01T04:53:32.561Z,9.43
2019-03-01T04:58:34.113Z,9.37
2019-03-01T05:03:35.673Z,9.32
2019-03-01T05:08:37.249Z,9.31
2019-03-01T05:13:38.811Z,9.33
2019-03-01T05:18:40.373Z,9.30
2019-03-01T05:23:41.933Z,9.32
2019-03-01T05:28:43.501Z,9.33
2019-03-01T05:33:45.065Z,9.30
2019-03-01T05:38:46.628Z,9.30
2019-03-01T05:43:48.223Z,9.27
2019-03-01T05:48:49.804Z,9.24
2019-03-01T05:53:51.509Z,9.22
2019-03-01T05:59:16.222Z,9.17
2019-03-01T06:04:30.704Z,9.15
2019-03-01T06:09:59.704Z,9.22
2019-03-01T06:15:31.300Z,9.28
2019-03-01T06:21:02.105Z,9.27
2019-03-01T06:26:33.604Z,9.34
2019-03-01T06:32:19.405Z,9.37
2019-03-01T06:38:05.154Z,9.38
2019-03-01T06:43:43.445Z,9.46
2019-03-01T06:48:58.266Z,9.47
2019-03-01T06:53:59.839Z,9.50
2019-03-01T06:59:03.223Z,9.59
2019-03-01T07:04:17.528Z,9.68
2019-03-01T07:09:19.095Z,9.71
2019-03-01T07:14:20.658Z,9.69
2019-03-01T07:19:22.223Z,9.63
2019-03-01T07:24:23.890Z,9.59
2019-03-01T07:29:25.547Z,9.53
2019-03-01T07:34:27.115Z,9.51
2019-03-01T07:39:28.673Z,9.47
2019-03-01T07:44:30.261Z,9.59
2019-03-01T07:49:31.804Z,9.57
2019-03-01T07:54:33.473Z,9.52
2019-03-01T07:59:38.438Z,9.47
2019-03-01T08:04:38.551Z,9.44
2019-03-01T08:09:41.405Z,9.53
2019-03-01T08:14:43.572Z,9.61
2019-03-01T08:19:45.733Z,9.63
2019-03-01T08:24:47.592Z,9.69
2019-03-01T08:29:49.162Z,9.87
2019-03-01T08:34:53.703Z,9.89
2019-03-01T08:39:54.294Z,9.94
2019-03-01T08:44:58.174Z,10.04
2019-03-01T08:49:59.609Z,10.14
2019-03-01T08:55:03.921Z,10.26
2019-03-01T09:00:11.009Z,10.48
2019-03-01T09:05:12.735Z,10.79
2019-03-01T09:10:15.075Z,10.85
2019-03-01T09:15:16.745Z,10.69
2019-03-01T09:20:18.331Z,10.77
2019-03-01T09:25:20.017Z,10.74
2019-03-01T09:30:22.146Z,10.84
2019-03-01T09:35:43.233Z,11.22
2019-03-01T09:40:45.286Z,11.60
2019-03-01T09:45:48.764Z,11.52
2019-03-01T09:50:50.442Z,11.34
2019-03-01T09:55:52.005Z,11.73
2019-03-01T10:00:57.611Z,11.60
2019-03-01T10:05:59.183Z,11.41
2019-03-01T10:11:00.750Z,11.20
2019-03-01T10:16:02.406Z,10.93
2019-03-01T10:21:04.176Z,10.87
2019-03-01T10:26:05.837Z,10.99
2019-03-01T10:31:07.401Z,11.48
2019-03-01T10:36:09.070Z,11.92
2019-03-01T10:41:10.854Z,12.41
2019-03-01T10:46:12.665Z,12.13
2019-03-01T10:51:14.247Z,11.70
2019-03-01T10:56:15.818Z,11.45
2019-03-01T11:01:17.502Z,11.15
2019-03-01T11:06:19.068Z,11.09
2019-03-01T11:11:20.700Z,11.14
2019-03-01T11:16:22.268Z,11.17
2019-03-01T11:21:23.979Z,11.40
2019-03-01T11:26:25.536Z,11.84
2019-03-01T11:31:27.084Z,11.72
2019-03-01T11:36:28.644Z,11.98
2019-03-01T11:41:30.535Z,12.00
2019-03-01T11:46:32.098Z,11.85
2019-03-01T11:51:33.778Z,11.59
2019-03-01T11:56:35.333Z,11.38
2019-03-01T12:01:37.003Z,11.38
2019-03-01T12:06:38.556Z,11.33
2019-03-01T12:11:40.104Z,11.18
2019-03-01T12:16:41.673Z,10.79
2019-03-01T12:21:43.257Z,10.61
2019-03-01T12:26:44.830Z,10.41
2019-03-01T12:31:46.412Z,10.33
2019-03-01T12:36:47.990Z,10.36
2019-03-01T12:41:49.569Z,10.40
2019-03-01T12:46:51.147Z,10.40
2019-03-01T12:51:52.737Z,10.64
2019-03-01T12:56:54.337Z,10.81
2019-03-01T13:01:55.905Z,11.28
2019-03-01T13:06:57.517Z,11.43
2019-03-01T13:11:59.077Z,11.31
2019-03-01T13:17:01.779Z,11.66
2019-03-01T13:22:04.242Z,11.45
2019-03-01T13:27:05.832Z,11.02
2019-03-01T13:32:07.427Z,10.85
2019-03-01T13:37:14.436Z,10.80
2019-03-01T13:42:13.390Z,10.71
2019-03-01T13:47:15.591Z,10.72
2019-03-01T13:52:17.185Z,10.61
2019-03-01T13:57:18.760Z,10.38
2019-03-01T14:02:20.344Z,10.22
2019-03-01T14:07:21.908Z,10.10
2019-03-01T14:12:23.513Z,10.02
2019-03-01T14:17:25.739Z,10.00
2019-03-01T14:22:27.489Z,9.92
2019-03-01T14:27:29.553Z,9.85
2019-03-01T14:32:32.075Z,9.81
2019-03-01T14:37:33.643Z,9.83
2019-03-01T14:42:35.220Z,9.79
2019-03-01T14:47:36.922Z,9.81
2019-03-01T14:52:38.512Z,9.78
2019-03-01T14:57:46.191Z,9.77
2019-03-01T15:02:55.993Z,9.73
2019-03-01T15:07:57.693Z,9.72
2019-03-01T15:12:59.263Z,9.68
2019-03-01T15:18:00.858Z,9.66
2019-03-01T15:23:02.555Z,9.62
2019-03-01T15:28:04.124Z,9.57
2019-03-01T15:33:08.409Z,9.62
2019-03-01T15:38:10.912Z,9.64
2019-03-01T15:43:12.555Z,9.68
2019-03-01T15:48:14.304Z,9.67
2019-03-01T15:53:15.877Z,9.69
2019-03-01T15:58:17.431Z,9.62
2019-03-01T16:03:19.003Z,9.61
2019-03-01T16:08:23.049Z,9.52
2019-03-01T16:13:24.617Z,9.40
2019-03-01T16:18:26.186Z,9.29
2019-03-01T16:23:30.283Z,9.24
2019-03-01T16:28:32.306Z,9.17
2019-03-01T16:33:34.038Z,9.09
2019-03-01T16:38:40.979Z,9.09
2019-03-01T16:43:39.109Z,9.06
2019-03-01T16:48:40.675Z,9.09
2019-03-01T16:53:42.257Z,9.00
2019-03-01T16:58:43.829Z,8.95
2019-03-01T17:03:45.775Z,8.93
2019-03-01T17:08:47.350Z,8.79
2019-03-01T17:13:48.908Z,8.74
2019-03-01T17:18:50.505Z,8.67
2019-03-01T17:23:52.072Z,8.65
2019-03-01T17:28:53.756Z,8.53
2019-03-01T17:33:55.326Z,8.37
2019-03-01T17:38:56.882Z,8.34
2019-03-01T17:43:58.446Z,8.23
2019-03-01T17:49:00.116Z,8.16
2019-03-01T17:54:01.701Z,8.13
2019-03-01T17:59:03.612Z,8.11
2019-03-01T18:04:05.178Z,8.07
2019-03-01T18:09:06.823Z,8.04
2019-03-01T18:14:08.365Z,8.00
2019-03-01T18:19:09.920Z,7.99
2019-03-01T18:24:14.279Z,7.98
2019-03-01T18:29:14.924Z,7.98
2019-03-01T18:34:16.480Z,7.96
2019-03-01T18:39:18.044Z,7.97
2019-03-01T18:44:22.471Z,7.90
2019-03-01T18:49:23.184Z,7.85
2019-03-01T18:54:24.773Z,7.80
2019-03-01T18:59:26.345Z,7.80
2019-03-01T19:04:29.501Z,7.77
2019-03-01T19:09:31.406Z,7.73
2019-03-01T19:14:35.579Z,7.64
2019-03-01T19:19:36.566Z,7.68
2019-03-01T19:24:43.090Z,7.67
2019-03-01T19:29:41.682Z,7.71
2019-03-01T19:34:43.240Z,7.64
2019-03-01T19:39:44.805Z,7.55
2019-03-01T19:44:46.373Z,7.34
2019-03-01T19:49:48.520Z,7.20
2019-03-01T19:54:51.215Z,7.13
2019-03-01T19:59:52.787Z,6.95
2019-03-01T20:04:55.694Z,6.91
2019-03-01T20:09:57.843Z,6.82
2019-03-01T20:14:59.423Z,6.83
2019-03-01T20:20:01.355Z,6.73
2019-03-01T20:25:03.642Z,6.71
2019-03-01T20:30:08.311Z,6.72
2019-03-01T20:35:12.874Z,6.75
2019-03-01T20:40:13.652Z,6.72
2019-03-01T20:45:17.708Z,6.53
2019-03-01T20:50:19.297Z,6.48
2019-03-01T20:55:20.861Z,6.54
2019-03-01T21:00:25.800Z,6.57
2019-03-01T21:05:28.973Z,6.54
2019-03-01T21:10:29.694Z,6.45
2019-03-01T21:15:31.347Z,6.46
2019-03-01T21:20:33.022Z,6.55
2019-03-01T21:25:35.829Z,6.42
2019-03-01T21:30:38.070Z,6.36
2019-03-01T21:35:39.635Z,6.44
2019-03-01T21:40:41.208Z,6.47
2019-03-01T21:45:42.757Z,6.51
2019-03-01T21:50:44.337Z,6.51
2019-03-01T21:55:46.017Z,6.54
2019-03-01T22:00:48.270Z,6.59
2019-03-01T22:05:50.379Z,6.59
2019-03-01T22:10:52.003Z,6.63
2019-03-01T22:15:53.715Z,6.60
2019-03-01T22:20:55.286Z,6.57
2019-03-01T22:25:56.984Z,6.50
2019-03-01T22:31:00.347Z,6.55
2019-03-01T22:36:02.042Z,6.50
2019-03-01T22:41:04.080Z,6.50
2019-03-01T22:46:06.400Z,6.55
2019-03-01T22:51:07.984Z,6.60
2019-03-01T22:56:12.030Z,6.60
2019-03-01T23:01:17.755Z,6.56
2019-03-01T23:06:19.316Z,6.60
2019-03-01T23:11:20.895Z,6.56
2019-03-01T23:16:22.475Z,6.54
2019-03-01T23:21:24.064Z,6.48
2019-03-01T23:26:25.636Z,6.37
2019-03-01T23:31:27.224Z,6.44
2019-03-01T23:36:29.754Z,6.39
2019-03-01T23:41:31.547Z,6.44
2019-03-01T23:46:33.235Z,6.53
2019-03-01T23:51:34.845Z,6.60
2019-03-01T23:56:36.449Z,6.58
